Latest Weather Observations for Mount Keith

IDW60801

Issued at 8:04 am WST Thursday 23 February 2017 (issued every 30 minutes, with the page automatically refreshed every 10 minutes)

About weather observations | Map of weather stations | Latest weather observations for WA | Other Formats
Station Details ID: 512019 Name: MOUNT KEITH Lat: -27.29 Lon: 120.55 Height: 542.33 m
Data from the previous 72 hours. | See also: Recent months for locations in Western Australia
Date/Time
WST
Temp
°C
App
Temp
°C
Dew
Point
°C
Rel
Hum
%
Delta-T
°C
Wind Press
QNH
hPa
Press
MSL
hPa
Rain since
9am
mm
Dir  Spd
km/h
Gust
km/h
Spd
kts
Gust
kts
23/08:00am 22.2 16.7 3.8 30 9.1 ENE 22 32 12 17 1021.6 1017.4 0.0
23/07:30am 21.3 16.2 4.0 32 8.6 E 20 28 11 15 1021.3 1017.1 0.0
23/07:00am 19.6 15.0 3.7 35 7.7 ESE 17 24 9 13 1021.0 1016.8 0.0
23/06:30am 17.2 13.6 4.9 44 6.0 ESE 13 15 7 8 1020.6 1016.5 0.0
23/06:00am 14.4 11.2 5.0 53 4.5 ESE 11 11 6 6 1020.2 1016.0 0.0
23/05:30am 14.8 11.9 4.8 51 4.8 ESE 9 11 5 6 1019.9 1015.7 0.0
23/05:00am 15.4 12.5 4.5 48 5.2 SE 9 13 5 7 1019.7 1015.5 0.0
23/04:30am 15.7 12.6 3.8 45 5.7 ESE 9 11 5 6 1019.6 1015.4 0.0
23/04:00am 16.7 13.5 3.1 40 6.4 ESE 9 11 5 6 1019.5 1015.3 0.0
23/03:30am 17.6 14.0 2.8 37 7.0 ESE 11 13 6 7 1019.4 1015.2 0.0
23/03:00am 18.2 14.2 2.9 36 7.3 SE 13 15 7 8 1019.4 1015.2 0.0
23/02:30am 17.8 14.3 3.3 38 6.9 ESE 11 13 6 7 1019.6 1015.4 0.0
23/02:00am 18.0 14.4 3.1 37 7.1 ESE 11 15 6 8 1019.7 1015.5 0.0
23/01:30am 18.4 14.4 2.7 35 7.4 ESE 13 17 7 9 1019.7 1015.5 0.0
23/01:00am 19.2 15.2 3.0 34 7.8 ESE 13 17 7 9 1019.8 1015.6 0.0
23/12:30am 19.7 15.7 3.0 33 8.0 ESE 13 17 7 9 1019.9 1015.7 0.0
23/12:00am 20.1 16.0 2.5 31 8.4 ESE 13 17 7 9 1020.0 1015.8 0.0
 
Date/Time
WST
Temp
°C
App
Temp
°C
Dew
Point
°C
Rel
Hum
%
Delta-T
°C
Wind Press
QNH
hPa
Press
MSL
hPa
Rain since
9am
mm
Dir  Spd
km/h
Gust
km/h
Spd
kts
Gust
kts
22/11:30pm 20.6 16.6 2.9 31 8.6 SE 13 19 7 10 1020.1 1015.9 0.0
22/11:00pm 21.1 17.2 3.3 31 8.7 SE 13 19 7 10 1020.1 1015.9 0.0
22/10:30pm 21.0 17.5 3.7 32 8.5 SSE 11 15 6 8 1020.1 1015.9 0.0
22/10:00pm 21.6 18.2 4.2 32 8.7 S 11 15 6 8 1020.1 1015.9 0.0
22/09:30pm 22.0 18.7 4.6 32 8.8 S 11 15 6 8 1019.9 1015.7 0.0
22/09:00pm 22.2 19.3 4.7 32 8.8 SSE 9 11 5 6 1019.6 1015.4 0.0
22/08:30pm 23.1 20.2 4.6 30 9.4 SE 9 11 5 6 1019.2 1015.0 0.0
22/08:00pm 24.1 21.1 4.0 27 10.1 SE 9 11 5 6 1018.8 1014.6 0.0
22/07:30pm 24.6 21.1 3.3 25 10.7 ESE 11 15 6 8 1018.5 1014.3 0.0
22/07:00pm 25.6 21.5 2.3 22 11.5 ESE 13 19 7 10 1018.2 1014.0 0.0
22/06:30pm 26.7 21.8 1.9 20 12.3 SE 17 20 9 11 1017.7 1013.5 0.0
22/06:00pm 27.6 22.7 1.9 19 12.8 SE 17 24 9 13 1017.4 1013.2 0.0
22/05:30pm 28.1 23.1 1.6 18 13.2 SSE 17 26 9 14 1017.2 1012.9 0.0
22/05:00pm 28.0 22.3 0.7 17 13.3 SE 20 26 11 14 1017.1 1012.8 0.0
22/04:30pm 28.2 23.1 0.9 17 13.4 SE 17 26 9 14 1017.2 1012.9 0.0
22/04:00pm 27.9 23.2 0.6 17 13.3 SSE 15 22 8 12 1017.2 1012.9 0.0
22/03:30pm 27.7 22.9 0.5 17 13.2 ESE 15 22 8 12 1017.1 1012.8 0.0
22/03:00pm 28.3 22.7 0.1 16 13.7 SSE 19 26 10 14 1017.3 1013.1 0.0
22/02:30pm 27.9 23.7 1.4 18 13.1 SE 13 28 7 15 1017.5 1013.3 0.0
22/02:00pm 26.9 21.8 0.6 18 12.7 SE 17 28 9 15 1017.7 1013.5 0.0
22/01:30pm 27.4 22.7 3.2 21 12.3 SE 17 24 9 13 1018.0 1013.8 0.0
22/01:00pm 26.5 22.3 1.7 20 12.2 SE 13 22 7 12 1018.2 1014.0 0.0
22/12:30pm 25.9 21.5 2.6 22 11.6 SE 15 26 8 14 1018.5 1014.3 0.0
22/12:00pm 24.8 19.7 2.9 24 10.9 SE 19 30 10 16 1018.8 1014.6 0.0
22/11:30am 25.9 21.4 4.4 25 11.1 SSE 17 30 9 16 1019.1 1014.9 0.0
22/11:00am 24.0 19.2 4.9 29 9.8 SE 19 32 10 17 1019.4 1015.2 0.0
22/10:30am 23.8 18.8 4.7 29 9.8 ESE 20 32 11 17 1019.7 1015.5 0.0
22/10:00am 23.3 18.9 4.8 30 9.4 SE 17 28 9 15 1019.8 1015.6 0.0
22/09:30am 22.6 18.2 4.6 31 9.1 ESE 17 26 9 14 1019.8 1015.6 0.0
22/09:00am 21.5 16.0 4.1 32 8.6 ESE 22 35 12 19 1019.8 1015.6 0.0
22/08:30am 21.3 16.3 4.4 33 8.5 ESE 20 30 11 16 1019.5 1015.3 0.0
22/08:00am 20.0 14.1 4.1 35 7.8 SE 24 33 13 18 1019.3 1015.1 0.0
22/07:30am 19.0 13.2 4.4 38 7.2 SE 24 32 13 17 1019.0 1014.8 0.0
22/07:00am 18.5 13.4 4.3 39 6.9 SSE 20 30 11 16 1018.5 1014.3 0.0
22/06:30am 17.7 12.9 4.6 42 6.4 SSE 19 22 10 12 1018.2 1014.0 0.0
22/06:00am 17.1 13.6 5.4 46 5.8 SSE 13 19 7 10 1017.8 1013.6 0.0
22/05:30am 17.4 13.4 5.0 44 6.1 SSE 15 17 8 9 1017.6 1013.4 0.0
22/05:00am 17.8 13.9 5.4 44 6.2 S 15 19 8 10 1017.3 1013.1 0.0
22/04:30am 18.1 14.6 5.3 43 6.4 S 13 17 7 9 1017.1 1012.8 0.0
22/04:00am 18.6 15.1 5.5 42 6.6 SSE 13 19 7 10 1016.7 1012.5 0.0
22/03:30am 19.2 14.8 4.9 39 7.1 SSE 17 22 9 12 1016.5 1012.3 0.0
22/03:00am 19.7 15.5 7.4 45 6.4 SSE 19 32 10 17 1016.2 1012.0 0.0
22/02:30am 19.9 16.8 8.9 49 5.9 S 15 19 8 10 1015.9 1011.7 0.0
22/02:00am 20.3 16.8 8.9 48 6.2 SSW 17 20 9 11 1015.7 1011.5 0.0
22/01:30am 20.7 16.9 9.0 47 6.4 SSW 19 24 10 13 1015.6 1011.4 0.0
22/01:00am 21.1 17.6 8.7 45 6.7 SSW 17 20 9 11 1015.7 1011.5 0.0
22/12:30am 21.5 17.9 8.4 43 7.1 SSW 17 20 9 11 1015.6 1011.4 0.0
22/12:00am 21.8 17.5 8.0 41 7.4 SSW 20 28 11 15 1015.6 1011.4 0.0
 
Date/Time
WST
Temp
°C
App
Temp
°C
Dew
Point
°C
Rel
Hum
%
Delta-T
°C
Wind Press
QNH
hPa
Press
MSL
hPa
Rain since
9am
mm
Dir  Spd
km/h
Gust
km/h
Spd
kts
Gust
kts
21/11:30pm 22.3 18.3 8.1 40 7.7 SSW 19 26 10 14 1015.8 1011.6 0.0
21/11:00pm 22.8 18.1 7.8 38 8.1 SSW 22 32 12 17 1015.9 1011.7 0.0
21/10:30pm 23.3 18.9 7.4 36 8.5 SSW 20 32 11 17 1015.9 1011.7 0.0
21/10:00pm 23.8 19.0 7.4 35 8.8 SSW 22 28 12 15 1015.7 1011.5 0.0
21/09:30pm 24.4 19.4 6.6 32 9.5 SSW 22 32 12 17 1015.5 1011.2 0.0
21/09:00pm 24.9 20.0 5.2 28 10.2 SSW 20 28 11 15 1015.1 1010.8 0.0
21/08:30pm 25.6 21.2 4.7 26 10.8 SSW 17 26 9 14 1014.7 1010.5 0.0
21/08:00pm 26.3 21.8 4.1 24 11.4 SSW 17 24 9 13 1014.3 1010.1 0.0
21/07:30pm 27.3 22.7 3.7 22 12.1 SSW 17 20 9 11 1013.8 1009.5 0.0
21/07:00pm 28.3 23.2 3.2 20 12.9 SW 19 26 10 14 1013.2 1008.9 0.0
21/06:30pm 29.5 23.4 2.7 18 13.7 SW 24 32 13 17 1012.5 1008.3 0.0
21/06:00pm 30.7 24.0 3.7 18 14.2 SW 28 37 15 20 1012.0 1007.7 0.0
21/05:30pm 31.3 24.1 4.9 19 14.2 SW 32 41 17 22 1011.7 1007.4 0.0
21/05:00pm 31.6 25.4 9.2 25 12.9 SW 32 43 17 23 1011.4 1007.1 0.0
21/04:30pm 31.7 26.3 11.0 28 12.3 SW 30 46 16 25 1011.2 1006.9 0.0
21/04:00pm 31.7 27.0 14.4 35 10.8 WSW 32 41 17 22 1011.2 1006.9 0.0
21/03:30pm 32.5 28.1 15.1 35 11.0 WSW 32 43 17 23 1011.0 1006.8 0.0
21/03:10pm 32.4 28.1 15.4 36 10.8 WSW 32 52 17 28 1010.9 1006.7 0.0
21/03:00pm 32.6 29.5 15.6 36 10.8 WSW 26 44 14 24 1010.8 1006.6 0.0
21/02:30pm 31.9 28.4 16.6 39 9.8 WSW 30 39 16 21 1011.0 1006.8 0.0
21/02:02pm 31.4 28.8 17.7 44 8.9 WSW 28 46 15 25 1011.3 1007.0 0.0
21/02:00pm 31.1 28.0 17.4 44 8.9 WSW 30 46 16 25 1011.4 1007.1 0.0
21/01:59pm 31.7 29.0 17.6 43 9.2 WSW 28 46 15 25 1011.4 1007.1 0.0
21/01:30pm 31.2 28.3 17.9 45 8.7 WSW 30 44 16 24 1011.4 1007.1 0.0
21/01:00pm 31.8 28.4 17.7 43 9.2 W 32 50 17 27 1011.6 1007.3 0.0
21/12:51pm 32.1 29.0 17.6 42 9.5 W 30 50 16 27 1011.7 1007.4 0.0
21/12:30pm 31.4 28.9 18.0 44 8.8 W 28 37 15 20 1011.8 1007.5 0.0
21/12:00pm 31.3 29.3 18.3 46 8.6 WSW 26 37 14 20 1012.2 1008.0 0.0
21/11:30am 31.7 28.8 17.9 43 9.0 WSW 30 41 16 22 1012.5 1008.3 0.0
21/11:00am 30.6 28.0 17.7 46 8.4 W 28 39 15 21 1012.6 1008.4 0.0
21/10:30am 29.6 28.0 17.4 47 7.9 WNW 22 32 12 17 1012.8 1008.6 0.0
21/10:00am 29.6 27.9 17.1 47 8.0 W 22 32 12 17 1012.8 1008.6 0.0
21/09:30am 29.2 27.6 16.4 46 8.1 W 20 28 11 15 1013.2 1008.9 0.0
21/09:00am 28.2 27.2 16.5 49 7.4 NW 17 24 9 13 1012.9 1008.7 0.0
21/08:30am 26.8 25.6 16.1 52 6.7 WNW 17 22 9 12 1013.3 1009.0 0.0
21/08:00am 26.3 25.9 16.3 54 6.3 W 13 20 7 11 1013.0 1008.8 0.0
21/07:30am 25.7 26.3 16.8 58 5.6 NW 9 11 5 6 1012.7 1008.5 0.0
21/07:00am 24.8 25.4 16.8 61 5.0 NNW 9 13 5 7 1012.5 1008.3 0.0
21/06:30am 24.7 25.7 16.9 62 4.9 N 7 11 4 6 1012.3 1008.1 0.0
21/06:00am 24.3 25.0 17.1 64 4.6 N 9 11 5 6 1012.0 1007.7 0.0
21/05:30am 24.2 25.0 17.2 65 4.4 N 9 11 5 6 1012.1 1007.8 0.0
21/05:00am 23.9 25.6 17.2 66 4.2 ENE 4 7 2 4 1012.1 1007.8 0.0
21/04:30am 24.0 26.5 17.3 66 4.2 CALM 0 0 0 0 1011.8 1007.5 0.0
21/04:00am 24.0 26.4 17.0 65 4.4 CALM 0 0 0 0 1012.1 1007.8 0.0
21/03:30am 24.1 26.5 16.9 64 4.5 CALM 0 0 0 0 1012.0 1007.7 0.0
21/03:00am 24.2 25.3 16.7 63 4.7 S 6 9 3 5 1012.1 1007.8 0.0
21/02:30am 24.3 24.9 16.8 63 4.7 SSW 9 11 5 6 1012.3 1008.1 0.0
21/02:00am 24.4 24.5 16.6 61 4.9 S 11 15 6 8 1012.1 1007.8 0.0
21/01:30am 24.5 25.0 16.5 61 5.0 SSE 9 11 5 6 1012.3 1008.1 0.0
21/01:00am 24.8 23.3 16.2 58 5.4 SSW 19 26 10 14 1012.6 1008.4 0.0
21/12:30am 25.0 22.8 15.9 57 5.7 SW 22 32 12 17 1013.0 1008.8 0.0
21/12:00am 25.3 22.7 15.9 56 5.9 SW 24 32 13 17 1013.3 1009.0 0.0
 
Date/Time
WST
Temp
°C
App
Temp
°C
Dew
Point
°C
Rel
Hum
%
Delta-T
°C
Wind Press
QNH
hPa
Press
MSL
hPa
Rain since
9am
mm
Dir  Spd
km/h
Gust
km/h
Spd
kts
Gust
kts
20/11:30pm 25.5 22.7 16.4 57 5.7 SSW 26 37 14 20 1013.3 1009.0 0.0
20/11:00pm 25.9 22.1 16.7 57 5.8 SSW 32 41 17 22 1013.5 1009.2 0.0
20/10:30pm 26.8 24.4 16.4 53 6.6 SSW 24 35 13 19 1013.4 1009.1 0.0
20/10:00pm 27.6 25.2 13.9 43 8.4 SSW 19 35 10 19 1013.3 1009.0 0.0
20/09:30pm 27.0 26.1 11.5 38 9.1 NE 7 7 4 4 1012.1 1007.8 0.0
20/09:00pm 27.2 28.1 12.8 41 8.6 CALM 0 0 0 0 1012.1 1007.8 0.0
20/08:30pm 28.5 29.3 12.4 37 9.6 CALM 0 0 0 0 1012.2 1008.0 0.0
20/08:00pm 29.9 29.5 8.3 26 12.2 CALM 0 0 0 0 1012.2 1008.0 0.0
20/07:30pm 30.1 28.7 5.4 21 13.3 ENE 2 6 1 3 1011.8 1007.5 0.0
20/07:00pm 31.6 29.2 5.2 19 14.3 ESE 7 9 4 5 1011.4 1007.1 0.0
20/06:30pm 32.9 30.4 3.8 16 15.5 ENE 6 7 3 4 1010.9 1006.7 0.0
20/06:00pm 34.6 32.0 -1.4 10 17.8 NW 2 6 1 3 1010.5 1006.3 0.0
20/05:30pm 34.7 31.4 -1.4 10 17.8 SSE 6 7 3 4 1010.2 1005.9 0.0
20/05:00pm 35.6 32.2 -2.1 9 18.5 WNW 6 11 3 6 1010.5 1006.3 0.0
20/04:30pm 35.3 32.0 -0.9 10 18.1 NNE 6 11 3 6 1010.4 1006.1 0.0
20/04:00pm 35.1 31.1 0.2 11 17.8 NNE 11 19 6 10 1010.5 1006.3 0.0
20/03:30pm 35.3 32.0 0.4 11 17.8 N 7 15 4 8 1010.8 1006.6 0.0
20/03:00pm 35.2 31.4 1.5 12 17.5 WNW 11 13 6 7 1011.3 1007.0 0.0
20/02:30pm 34.8 31.1 2.3 13 17.0 NE 11 20 6 11 1011.6 1007.3 0.0
20/02:00pm 34.3 31.3 2.0 13 16.8 N 7 19 4 10 1012.1 1007.8 0.0
20/01:30pm 34.2 31.0 2.9 14 16.5 E 9 13 5 7 1012.5 1008.3 0.0
20/01:00pm 33.0 29.4 2.9 15 15.8 E 11 19 6 10 1013.0 1008.8 0.0
20/12:30pm 32.9 29.5 3.8 16 15.5 NNE 11 24 6 13 1013.5 1009.2 0.0
20/12:00pm 32.8 29.9 4.6 17 15.2 NNE 9 15 5 8 1014.0 1009.8 0.0
20/11:30am 31.8 29.0 5.3 19 14.3 NNW 9 15 5 8 1014.5 1010.3 0.0
20/11:00am 31.0 27.5 5.4 20 13.8 NNE 13 19 7 10 1014.9 1010.7 0.0
20/10:30am 30.4 26.4 4.9 20 13.6 NNE 15 20 8 11 1015.5 1011.2 0.0
20/10:00am 29.4 25.0 4.8 21 13.0 NNE 17 24 9 13 1015.8 1011.6 0.0
20/09:30am 28.5 23.5 4.7 22 12.5 NE 20 26 11 14 1016.0 1011.8 0.0
20/09:00am 27.6 22.3 5.2 24 11.8 NNE 22 28 12 15 1016.4 1012.2 0.0
20/08:30am 26.2 21.2 4.6 25 11.2 NNE 20 28 11 15 1016.5 1012.3 0.0

Other Formats:

Comma delimited format used in spreadsheet applications
http://www.bom.gov.au/fwo/IDW60801/IDW60801.99434.axf

JavaScript Object Notation format (JSON) in row-major order
http://www.bom.gov.au/fwo/IDW60801/IDW60801.99434.json